Latest Weather Observations for Warburto Point

IDS60801

Issued at 4:01 am CST Monday 24 July 2017 (issued every 30 minutes, with the page automatically refreshed every 10 minutes)

About weather observations | Map of weather stations | Latest weather observations for SA | Other Formats
Station Details ID: 022053 Name: WARBURTO POINT Lat: -34.00 Lon: 137.53 Height: 1.0 m
Data from the previous 72 hours. | See also: Recent months for locations in South Australia
Date/Time
CST
Temp
°C
App
Temp
°C
Dew
Point
°C
Rel
Hum
%
Delta-T
°C
Wind Press
QNH
hPa
Press
MSL
hPa
Rain since
9am
mm
Dir  Spd
km/h
Gust
km/h
Spd
kts
Gust
kts
24/04:00am - - - - - NNE 11 15 6 8 - - -
24/03:30am - - - - - NNW 15 19 8 10 - - -
24/03:00am - - - - - NNW 15 17 8 9 - - -
24/02:30am - - - - - N 11 17 6 9 - - -
24/02:00am - - - - - N 11 13 6 7 - - -
24/01:30am - - - - - NE 13 15 7 8 - - -
24/01:00am - - - - - NNE 15 17 8 9 - - -
24/12:30am - - - - - NNE 13 17 7 9 - - -
24/12:00am - - - - - NNE 9 11 5 6 - - -
 
Date/Time
CST
Temp
°C
App
Temp
°C
Dew
Point
°C
Rel
Hum
%
Delta-T
°C
Wind Press
QNH
hPa
Press
MSL
hPa
Rain since
9am
mm
Dir  Spd
km/h
Gust
km/h
Spd
kts
Gust
kts
23/11:30pm - - - - - NNE 11 13 6 7 - - -
23/11:00pm - - - - - N 9 9 5 5 - - -
23/10:30pm - - - - - N 9 13 5 7 - - -
23/10:00pm - - - - - N 11 11 6 6 - - -
23/09:30pm - - - - - NNE 13 17 7 9 - - -
23/09:00pm - - - - - ENE 9 13 5 7 - - -
23/08:30pm - - - - - CALM 0 0 0 0 - - -
23/08:00pm - - - - - CALM 0 0 0 0 - - -
23/07:30pm - - - - - CALM 0 0 0 0 - - -
23/07:00pm - - - - - CALM 0 0 0 0 - - -
23/06:30pm - - - - - CALM 0 0 0 0 - - -
23/06:00pm - - - - - CALM 0 4 0 2 - - -
23/05:30pm - - - - - WSW 7 7 4 4 - - -
23/05:00pm - - - - - WSW 7 9 4 5 - - -
23/04:30pm - - - - - WSW 13 17 7 9 - - -
23/04:00pm - - - - - W 13 15 7 8 - - -
23/03:30pm - - - - - W 11 13 6 7 - - -
23/03:00pm - - - - - WNW 9 13 5 7 - - -
23/02:30pm - - - - - W 13 17 7 9 - - -
23/02:00pm - - - - - W 13 17 7 9 - - -
23/01:30pm - - - - - WNW 17 20 9 11 - - -
23/01:00pm - - - - - WNW 17 26 9 14 - - -
23/12:30pm - - - - - WNW 20 26 11 14 - - -
23/12:00pm - - - - - NW 19 24 10 13 - - -
23/11:30am - - - - - NW 22 28 12 15 - - -
23/11:00am - - - - - NW 22 26 12 14 - - -
23/10:30am - - - - - NW 20 26 11 14 - - -
23/10:00am - - - - - NW 20 26 11 14 - - -
23/09:30am - - - - - NW 19 26 10 14 - - -
23/09:00am - - - - - NW 19 24 10 13 - - -
23/08:30am - - - - - WNW 17 22 9 12 - - -
23/08:00am - - - - - WNW 17 19 9 10 - - -
23/07:30am - - - - - WNW 17 22 9 12 - - -
23/07:00am - - - - - WNW 20 28 11 15 - - -
23/06:30am - - - - - WNW 22 32 12 17 - - -
23/06:00am - - - - - WNW 24 32 13 17 - - -
23/05:30am - - - - - WNW 20 26 11 14 - - -
23/05:00am - - - - - NW 19 24 10 13 - - -
23/04:30am - - - - - WNW 19 24 10 13 - - -
23/04:00am - - - - - NW 15 17 8 9 - - -
23/03:30am - - - - - NW 13 17 7 9 - - -
23/03:00am - - - - - NNW 15 17 8 9 - - -
23/02:30am - - - - - NW 15 19 8 10 - - -
23/02:00am - - - - - NW 19 22 10 12 - - -
23/01:30am - - - - - NW 19 20 10 11 - - -
23/01:00am - - - - - NW 20 22 11 12 - - -
23/12:30am - - - - - NW 19 22 10 12 - - -
23/12:00am - - - - - NW 19 22 10 12 - - -
 
Date/Time
CST
Temp
°C
App
Temp
°C
Dew
Point
°C
Rel
Hum
%
Delta-T
°C
Wind Press
QNH
hPa
Press
MSL
hPa
Rain since
9am
mm
Dir  Spd
km/h
Gust
km/h
Spd
kts
Gust
kts
22/11:30pm - - - - - WNW 19 22 10 12 - - -
22/11:00pm - - - - - WNW 20 24 11 13 - - -
22/10:30pm - - - - - WNW 17 19 9 10 - - -
22/10:00pm - - - - - WNW 17 20 9 11 - - -
22/09:30pm - - - - - W 15 17 8 9 - - -
22/09:00pm - - - - - W 19 22 10 12 - - -
22/08:30pm - - - - - W 19 22 10 12 - - -
22/08:00pm - - - - - W 15 17 8 9 - - -
22/07:30pm - - - - - WNW 20 28 11 15 - - -
22/07:00pm - - - - - N 22 26 12 14 - - -
22/06:30pm - - - - - N 20 22 11 12 - - -
22/06:00pm - - - - - NNE 20 26 11 14 - - -
22/05:30pm - - - - - NNE 22 26 12 14 - - -
22/05:00pm - - - - - NNE 24 28 13 15 - - -
22/04:30pm - - - - - N 28 30 15 16 - - -
22/04:00pm - - - - - N 26 30 14 16 - - -
22/03:30pm - - - - - NNE 20 26 11 14 - - -
22/03:00pm - - - - - N 26 28 14 15 - - -
22/02:30pm - - - - - N 26 30 14 16 - - -
22/02:00pm - - - - - N 30 35 16 19 - - -
22/01:30pm - - - - - N 28 33 15 18 - - -
22/01:00pm - - - - - N 32 37 17 20 - - -
22/12:30pm - - - - - N 33 41 18 22 - - -
22/12:00pm - - - - - N 35 41 19 22 - - -
22/11:30am - - - - - N 37 46 20 25 - - -
22/11:00am - - - - - N 39 48 21 26 - - -
22/10:30am - - - - - N 39 46 21 25 - - -
22/10:00am - - - - - N 39 50 21 27 - - -
22/09:30am - - - - - N 37 50 20 27 - - -
22/09:00am - - - - - N 39 48 21 26 - - -
22/08:30am - - - - - N 37 46 20 25 - - -
22/08:00am - - - - - N 33 41 18 22 - - -
22/07:30am - - - - - N 32 37 17 20 - - -
22/07:00am - - - - - N 32 37 17 20 - - -
22/06:30am - - - - - N 26 30 14 16 - - -
22/06:00am - - - - - N 24 30 13 16 - - -
22/05:30am - - - - - NNE 28 33 15 18 - - -
22/05:00am - - - - - NNE 26 32 14 17 - - -
22/04:30am - - - - - NNE 24 30 13 16 - - -
22/04:00am - - - - - NNE 20 26 11 14 - - -
22/03:30am - - - - - NNE 11 20 6 11 - - -
22/03:00am - - - - - S 9 15 5 8 - - -
22/02:30am - - - - - WSW 13 20 7 11 - - -
22/02:00am - - - - - N 32 37 17 20 - - -
22/01:30am - - - - - N 35 39 19 21 - - -
22/01:00am - - - - - N 33 39 18 21 - - -
22/12:30am - - - - - N 33 39 18 21 - - -
22/12:00am - - - - - N 35 41 19 22 - - -
 
Date/Time
CST
Temp
°C
App
Temp
°C
Dew
Point
°C
Rel
Hum
%
Delta-T
°C
Wind Press
QNH
hPa
Press
MSL
hPa
Rain since
9am
mm
Dir  Spd
km/h
Gust
km/h
Spd
kts
Gust
kts
21/11:30pm - - - - - N 32 35 17 19 - - -
21/11:00pm - - - - - NNE 32 37 17 20 - - -
21/10:30pm - - - - - NNE 33 41 18 22 - - -
21/10:00pm - - - - - NNE 30 33 16 18 - - -
21/09:30pm - - - - - NNE 30 37 16 20 - - -
21/09:00pm - - - - - NE 28 35 15 19 - - -
21/08:30pm - - - - - NE 28 33 15 18 - - -
21/08:00pm - - - - - NNE 33 39 18 21 - - -
21/07:30pm - - - - - NNE 33 39 18 21 - - -
21/07:00pm - - - - - NNE 35 39 19 21 - - -
21/06:30pm - - - - - NNE 33 39 18 21 - - -
21/06:00pm - - - - - NNE 32 35 17 19 - - -
21/05:30pm - - - - - NNE 30 35 16 19 - - -
21/05:00pm - - - - - NNE 32 37 17 20 - - -
21/04:30pm - - - - - NNE 33 39 18 21 - - -
21/04:00pm - - - - - NNE 33 37 18 20 - - -
21/03:30pm - - - - - NNE 33 41 18 22 - - -
21/03:00pm - - - - - NNE 32 37 17 20 - - -
21/02:30pm - - - - - NNE 30 35 16 19 - - -
21/02:00pm - - - - - NNE 28 35 15 19 - - -
21/01:30pm - - - - - NNE 32 35 17 19 - - -
21/01:00pm - - - - - N 33 44 18 24 - - -
21/12:30pm - - - - - N 37 48 20 26 - - -
21/12:00pm - - - - - N 37 46 20 25 - - -
21/11:30am - - - - - N 37 48 20 26 - - -
21/11:00am - - - - - NNE 30 35 16 19 - - -
21/10:30am - - - - - N 33 41 18 22 - - -
21/10:00am - - - - - NNE 28 39 15 21 - - -
21/09:30am - - - - - NE 22 28 12 15 - - -
21/09:00am - - - - - NNE 20 28 11 15 - - -
21/08:30am - - - - - NE 20 24 11 13 - - -
21/08:00am - - - - - NE 20 24 11 13 - - -
21/07:30am - - - - - NE 19 22 10 12 - - -
21/07:00am - - - - - NE 19 20 10 11 - - -
21/06:30am - - - - - NE 19 20 10 11 - - -
21/06:00am - - - - - NE 17 20 9 11 - - -
21/05:30am - - - - - NE 17 19 9 10 - - -
21/05:00am - - - - - NE 19 20 10 11 - - -
21/04:30am - - - - - NE 19 20 10 11 - - -

Other Formats:

Comma delimited format used in spreadsheet applications
http://www.bom.gov.au/fwo/IDS60801/IDS60801.94666.axf

JavaScript Object Notation format (JSON) in row-major order
http://www.bom.gov.au/fwo/IDS60801/IDS60801.94666.json